sensor_id;sensor_type;location;lat;lon;timestamp;temperature;humidity
2112;DHT22;1062;52.538;13.400;2023-11-19T00:02:12;4.50;99.90
2112;DHT22;1062;52.538;13.400;2023-11-19T00:04:38;4.50;99.90
2112;DHT22;1062;52.538;13.400;2023-11-19T00:07:07;4.50;99.90
2112;DHT22;1062;52.538;13.400;2023-11-19T00:09:36;4.60;99.90
2112;DHT22;1062;52.538;13.400;2023-11-19T00:12:04;4.50;99.90
2112;DHT22;1062;52.538;13.400;2023-11-19T00:14:30;4.60;99.90
2112;DHT22;1062;52.538;13.400;2023-11-19T00:16:56;4.60;99.90
2112;DHT22;1062;52.538;13.400;2023-11-19T00:19:21;4.60;99.90
2112;DHT22;1062;52.538;13.400;2023-11-19T00:21:47;4.60;99.90
2112;DHT22;1062;52.538;13.400;2023-11-19T00:24:12;4.60;99.90
2112;DHT22;1062;52.538;13.400;2023-11-19T00:26:38;4.60;99.90
2112;DHT22;1062;52.538;13.400;2023-11-19T00:29:04;4.60;99.90
2112;DHT22;1062;52.538;13.400;2023-11-19T00:31:30;4.60;99.90
2112;DHT22;1062;52.538;13.400;2023-11-19T00:33:56;4.60;99.90
2112;DHT22;1062;52.538;13.400;2023-11-19T00:36:21;4.60;99.90
2112;DHT22;1062;52.538;13.400;2023-11-19T00:38:49;4.60;99.90
2112;DHT22;1062;52.538;13.400;2023-11-19T00:41:15;4.60;99.90
2112;DHT22;1062;52.538;13.400;2023-11-19T00:43:43;4.60;99.90
2112;DHT22;1062;52.538;13.400;2023-11-19T00:46:09;4.60;99.90
2112;DHT22;1062;52.538;13.400;2023-11-19T00:48:36;4.70;99.90
2112;DHT22;1062;52.538;13.400;2023-11-19T00:51:02;4.70;99.90
2112;DHT22;1062;52.538;13.400;2023-11-19T00:53:29;4.70;99.90
2112;DHT22;1062;52.538;13.400;2023-11-19T00:55:55;4.70;99.90
2112;DHT22;1062;52.538;13.400;2023-11-19T00:58:20;4.70;99.90
2112;DHT22;1062;52.538;13.400;2023-11-19T01:00:46;4.70;99.90
2112;DHT22;1062;52.538;13.400;2023-11-19T01:03:12;4.80;99.90
2112;DHT22;1062;52.538;13.400;2023-11-19T01:05:38;4.70;99.90
2112;DHT22;1062;52.538;13.400;2023-11-19T01:08:04;4.80;99.90
2112;DHT22;1062;52.538;13.400;2023-11-19T01:10:30;4.80;99.90
2112;DHT22;1062;52.538;13.400;2023-11-19T01:12:56;4.80;99.90
2112;DHT22;1062;52.538;13.400;2023-11-19T01:15:22;4.80;99.90
2112;DHT22;1062;52.538;13.400;2023-11-19T01:17:48;4.80;99.90
2112;DHT22;1062;52.538;13.400;2023-11-19T01:20:14;4.80;99.90
2112;DHT22;1062;52.538;13.400;2023-11-19T01:22:40;4.80;99.90
2112;DHT22;1062;52.538;13.400;2023-11-19T01:25:06;4.80;99.90
2112;DHT22;1062;52.538;13.400;2023-11-19T01:27:32;4.90;99.90
2112;DHT22;1062;52.538;13.400;2023-11-19T01:30:00;4.90;99.90
2112;DHT22;1062;52.538;13.400;2023-11-19T01:32:27;5.00;99.90
2112;DHT22;1062;52.538;13.400;2023-11-19T01:34:53;4.90;99.90
2112;DHT22;1062;52.538;13.400;2023-11-19T01:37:18;5.00;99.90
2112;DHT22;1062;52.538;13.400;2023-11-19T01:39:44;5.00;99.90
2112;DHT22;1062;52.538;13.400;2023-11-19T01:42:10;5.00;99.90
2112;DHT22;1062;52.538;13.400;2023-11-19T01:44:37;5.00;99.90
2112;DHT22;1062;52.538;13.400;2023-11-19T01:47:03;5.00;99.90
2112;DHT22;1062;52.538;13.400;2023-11-19T01:49:30;5.00;99.90
2112;DHT22;1062;52.538;13.400;2023-11-19T01:51:57;5.00;99.90
2112;DHT22;1062;52.538;13.400;2023-11-19T01:54:23;5.00;99.90
2112;DHT22;1062;52.538;13.400;2023-11-19T01:56:49;5.00;99.90
2112;DHT22;1062;52.538;13.400;2023-11-19T01:59:15;5.00;99.90
2112;DHT22;1062;52.538;13.400;2023-11-19T02:01:42;5.00;99.90
2112;DHT22;1062;52.538;13.400;2023-11-19T02:04:08;5.00;99.90
2112;DHT22;1062;52.538;13.400;2023-11-19T02:06:36;5.00;99.90
2112;DHT22;1062;52.538;13.400;2023-11-19T02:09:02;5.00;99.90
2112;DHT22;1062;52.538;13.400;2023-11-19T02:11:34;4.90;99.90
2112;DHT22;1062;52.538;13.400;2023-11-19T02:14:00;4.90;99.90
2112;DHT22;1062;52.538;13.400;2023-11-19T02:16:26;4.90;99.90
2112;DHT22;1062;52.538;13.400;2023-11-19T02:18:51;4.90;99.90
2112;DHT22;1062;52.538;13.400;2023-11-19T02:21:17;4.80;99.90
2112;DHT22;1062;52.538;13.400;2023-11-19T02:23:43;4.80;99.90
2112;DHT22;1062;52.538;13.400;2023-11-19T02:26:14;4.80;99.90
2112;DHT22;1062;52.538;13.400;2023-11-19T02:28:42;4.80;99.90
2112;DHT22;1062;52.538;13.400;2023-11-19T02:31:08;4.90;99.90
2112;DHT22;1062;52.538;13.400;2023-11-19T02:33:39;4.90;99.90
2112;DHT22;1062;52.538;13.400;2023-11-19T02:36:06;4.90;99.90
2112;DHT22;1062;52.538;13.400;2023-11-19T02:38:33;4.90;99.90
2112;DHT22;1062;52.538;13.400;2023-11-19T02:40:59;4.90;99.90
2112;DHT22;1062;52.538;13.400;2023-11-19T02:43:27;4.90;99.90
2112;DHT22;1062;52.538;13.400;2023-11-19T02:45:53;5.00;99.90
2112;DHT22;1062;52.538;13.400;2023-11-19T02:48:21;5.00;99.90
2112;DHT22;1062;52.538;13.400;2023-11-19T02:50:46;5.00;99.90
2112;DHT22;1062;52.538;13.400;2023-11-19T02:53:13;5.00;99.90
2112;DHT22;1062;52.538;13.400;2023-11-19T02:55:38;5.00;99.90
2112;DHT22;1062;52.538;13.400;2023-11-19T02:58:06;5.10;99.90
2112;DHT22;1062;52.538;13.400;2023-11-19T03:00:39;5.10;99.90
2112;DHT22;1062;52.538;13.400;2023-11-19T03:03:13;5.10;99.90
2112;DHT22;1062;52.538;13.400;2023-11-19T03:05:46;5.20;99.90
2112;DHT22;1062;52.538;13.400;2023-11-19T03:08:12;5.20;99.90
2112;DHT22;1062;52.538;13.400;2023-11-19T03:10:38;5.20;99.90
2112;DHT22;1062;52.538;13.400;2023-11-19T03:13:04;5.20;99.90
2112;DHT22;1062;52.538;13.400;2023-11-19T03:15:30;5.20;99.90
2112;DHT22;1062;52.538;13.400;2023-11-19T03:17:55;5.20;99.90
2112;DHT22;1062;52.538;13.400;2023-11-19T03:20:21;5.30;99.90
2112;DHT22;1062;52.538;13.400;2023-11-19T03:22:49;5.30;99.90
2112;DHT22;1062;52.538;13.400;2023-11-19T03:25:16;5.30;99.90
2112;DHT22;1062;52.538;13.400;2023-11-19T03:27:41;5.30;99.90
2112;DHT22;1062;52.538;13.400;2023-11-19T03:30:08;5.30;99.90
2112;DHT22;1062;52.538;13.400;2023-11-19T03:32:37;5.40;99.90
2112;DHT22;1062;52.538;13.400;2023-11-19T03:35:04;5.30;99.90
2112;DHT22;1062;52.538;13.400;2023-11-19T03:37:32;5.30;99.90
2112;DHT22;1062;52.538;13.400;2023-11-19T03:39:58;5.20;99.90
2112;DHT22;1062;52.538;13.400;2023-11-19T03:42:26;5.10;99.90
2112;DHT22;1062;52.538;13.400;2023-11-19T03:44:52;5.00;99.90
2112;DHT22;1062;52.538;13.400;2023-11-19T03:47:18;5.00;99.90
2112;DHT22;1062;52.538;13.400;2023-11-19T03:49:51;4.90;99.90
2112;DHT22;1062;52.538;13.400;2023-11-19T03:52:17;4.80;99.90
2112;DHT22;1062;52.538;13.400;2023-11-19T03:54:44;4.80;99.90
2112;DHT22;1062;52.538;13.400;2023-11-19T03:57:09;4.70;99.90
2112;DHT22;1062;52.538;13.400;2023-11-19T03:59:39;4.70;99.90
2112;DHT22;1062;52.538;13.400;2023-11-19T04:02:04;4.60;99.90
2112;DHT22;1062;52.538;13.400;2023-11-19T04:04:32;4.60;99.90
2112;DHT22;1062;52.538;13.400;2023-11-19T04:06:58;4.50;99.90
2112;DHT22;1062;52.538;13.400;2023-11-19T04:09:26;4.50;99.90
2112;DHT22;1062;52.538;13.400;2023-11-19T04:11:51;4.40;99.90
2112;DHT22;1062;52.538;13.400;2023-11-19T04:14:17;4.40;99.90
2112;DHT22;1062;52.538;13.400;2023-11-19T04:16:44;4.40;99.90
2112;DHT22;1062;52.538;13.400;2023-11-19T04:19:11;4.40;99.90
2112;DHT22;1062;52.538;13.400;2023-11-19T04:21:37;4.40;99.90
2112;DHT22;1062;52.538;13.400;2023-11-19T04:24:05;4.40;99.90
2112;DHT22;1062;52.538;13.400;2023-11-19T04:26:30;4.40;99.90
2112;DHT22;1062;52.538;13.400;2023-11-19T04:28:56;4.50;99.90
2112;DHT22;1062;52.538;13.400;2023-11-19T04:31:22;4.50;99.90
2112;DHT22;1062;52.538;13.400;2023-11-19T04:33:47;4.50;99.90
2112;DHT22;1062;52.538;13.400;2023-11-19T04:36:13;4.50;99.90
2112;DHT22;1062;52.538;13.400;2023-11-19T04:38:44;4.50;99.90
2112;DHT22;1062;52.538;13.400;2023-11-19T04:41:10;4.50;99.90
2112;DHT22;1062;52.538;13.400;2023-11-19T04:43:35;4.50;99.90
2112;DHT22;1062;52.538;13.400;2023-11-19T04:46:03;4.50;99.90
2112;DHT22;1062;52.538;13.400;2023-11-19T04:48:29;4.50;99.90
2112;DHT22;1062;52.538;13.400;2023-11-19T04:50:55;4.50;99.90
2112;DHT22;1062;52.538;13.400;2023-11-19T04:53:20;4.50;99.90
2112;DHT22;1062;52.538;13.400;2023-11-19T04:55:46;4.50;99.90
2112;DHT22;1062;52.538;13.400;2023-11-19T04:58:11;4.50;99.90
2112;DHT22;1062;52.538;13.400;2023-11-19T05:00:37;4.50;99.90
2112;DHT22;1062;52.538;13.400;2023-11-19T05:03:02;4.50;99.90
2112;DHT22;1062;52.538;13.400;2023-11-19T05:05:28;4.50;99.90
2112;DHT22;1062;52.538;13.400;2023-11-19T05:07:54;4.50;99.90
2112;DHT22;1062;52.538;13.400;2023-11-19T05:10:20;4.50;99.90
2112;DHT22;1062;52.538;13.400;2023-11-19T05:12:46;4.50;99.90
2112;DHT22;1062;52.538;13.400;2023-11-19T05:15:12;4.50;99.90
2112;DHT22;1062;52.538;13.400;2023-11-19T05:17:38;4.50;99.90
2112;DHT22;1062;52.538;13.400;2023-11-19T05:20:04;4.50;99.90
2112;DHT22;1062;52.538;13.400;2023-11-19T05:22:30;4.50;99.90
2112;DHT22;1062;52.538;13.400;2023-11-19T05:24:56;4.50;99.90
2112;DHT22;1062;52.538;13.400;2023-11-19T05:27:21;4.40;99.90
2112;DHT22;1062;52.538;13.400;2023-11-19T05:29:49;4.50;99.90
2112;DHT22;1062;52.538;13.400;2023-11-19T05:32:14;4.50;99.90
2112;DHT22;1062;52.538;13.400;2023-11-19T05:34:40;4.50;99.90
2112;DHT22;1062;52.538;13.400;2023-11-19T05:37:06;4.50;99.90
2112;DHT22;1062;52.538;13.400;2023-11-19T05:39:31;4.50;99.90
2112;DHT22;1062;52.538;13.400;2023-11-19T05:41:57;4.60;99.90
2112;DHT22;1062;52.538;13.400;2023-11-19T05:44:22;4.60;99.90
2112;DHT22;1062;52.538;13.400;2023-11-19T05:46:48;4.60;99.90
2112;DHT22;1062;52.538;13.400;2023-11-19T05:49:14;4.60;99.90
2112;DHT22;1062;52.538;13.400;2023-11-19T05:51:39;4.60;99.90
2112;DHT22;1062;52.538;13.400;2023-11-19T05:54:08;4.60;99.90
2112;DHT22;1062;52.538;13.400;2023-11-19T05:56:35;4.60;99.90
2112;DHT22;1062;52.538;13.400;2023-11-19T05:59:01;4.70;99.90
2112;DHT22;1062;52.538;13.400;2023-11-19T06:01:31;4.70;99.90
2112;DHT22;1062;52.538;13.400;2023-11-19T06:03:57;4.70;99.90
2112;DHT22;1062;52.538;13.400;2023-11-19T06:06:24;4.70;99.90
2112;DHT22;1062;52.538;13.400;2023-11-19T06:08:49;4.70;99.90
2112;DHT22;1062;52.538;13.400;2023-11-19T06:11:16;4.70;99.90
2112;DHT22;1062;52.538;13.400;2023-11-19T06:13:44;4.70;99.90
2112;DHT22;1062;52.538;13.400;2023-11-19T06:16:10;4.80;99.90
2112;DHT22;1062;52.538;13.400;2023-11-19T06:18:36;4.80;99.90
2112;DHT22;1062;52.538;13.400;2023-11-19T06:21:02;4.80;99.90
2112;DHT22;1062;52.538;13.400;2023-11-19T06:23:28;4.80;99.90
2112;DHT22;1062;52.538;13.400;2023-11-19T06:25:53;4.80;99.90
2112;DHT22;1062;52.538;13.400;2023-11-19T06:28:19;4.90;99.90
2112;DHT22;1062;52.538;13.400;2023-11-19T06:30:44;4.90;99.90
2112;DHT22;1062;52.538;13.400;2023-11-19T06:33:13;4.90;99.90
2112;DHT22;1062;52.538;13.400;2023-11-19T06:35:39;4.90;99.90
2112;DHT22;1062;52.538;13.400;2023-11-19T06:38:05;4.90;99.90
2112;DHT22;1062;52.538;13.400;2023-11-19T06:40:31;4.90;99.90
2112;DHT22;1062;52.538;13.400;2023-11-19T06:42:57;5.00;99.90
2112;DHT22;1062;52.538;13.400;2023-11-19T06:45:22;4.90;99.90
2112;DHT22;1062;52.538;13.400;2023-11-19T06:47:48;4.90;99.90
2112;DHT22;1062;52.538;13.400;2023-11-19T06:50:14;5.00;99.90
2112;DHT22;1062;52.538;13.400;2023-11-19T06:52:40;5.00;99.90
2112;DHT22;1062;52.538;13.400;2023-11-19T06:55:06;5.00;99.90
2112;DHT22;1062;52.538;13.400;2023-11-19T06:57:32;5.00;99.90
2112;DHT22;1062;52.538;13.400;2023-11-19T06:59:59;5.00;99.90
2112;DHT22;1062;52.538;13.400;2023-11-19T07:02:25;5.00;99.90
2112;DHT22;1062;52.538;13.400;2023-11-19T07:04:51;5.10;99.90
2112;DHT22;1062;52.538;13.400;2023-11-19T07:07:17;5.10;99.90
2112;DHT22;1062;52.538;13.400;2023-11-19T07:09:42;5.10;99.90
2112;DHT22;1062;52.538;13.400;2023-11-19T07:12:08;5.10;99.90
2112;DHT22;1062;52.538;13.400;2023-11-19T07:14:34;5.10;99.90
2112;DHT22;1062;52.538;13.400;2023-11-19T07:17:00;5.10;99.90
2112;DHT22;1062;52.538;13.400;2023-11-19T07:19:26;5.20;99.90
2112;DHT22;1062;52.538;13.400;2023-11-19T07:21:51;5.20;99.90
2112;DHT22;1062;52.538;13.400;2023-11-19T07:24:20;5.20;99.90
2112;DHT22;1062;52.538;13.400;2023-11-19T07:26:47;5.20;99.90
2112;DHT22;1062;52.538;13.400;2023-11-19T07:29:14;5.30;99.90
2112;DHT22;1062;52.538;13.400;2023-11-19T07:31:40;5.30;99.90
2112;DHT22;1062;52.538;13.400;2023-11-19T07:34:06;5.30;99.90
2112;DHT22;1062;52.538;13.400;2023-11-19T07:36:32;5.30;99.90
2112;DHT22;1062;52.538;13.400;2023-11-19T07:38:58;5.40;99.90
2112;DHT22;1062;52.538;13.400;2023-11-19T07:41:24;5.40;99.90
2112;DHT22;1062;52.538;13.400;2023-11-19T07:43:51;5.40;99.90
2112;DHT22;1062;52.538;13.400;2023-11-19T07:46:17;5.50;99.90
2112;DHT22;1062;52.538;13.400;2023-11-19T07:48:46;5.50;99.90
2112;DHT22;1062;52.538;13.400;2023-11-19T07:51:14;5.50;99.90
2112;DHT22;1062;52.538;13.400;2023-11-19T07:53:40;5.50;99.90
2112;DHT22;1062;52.538;13.400;2023-11-19T07:56:07;5.50;99.90
2112;DHT22;1062;52.538;13.400;2023-11-19T07:58:33;5.60;99.90
2112;DHT22;1062;52.538;13.400;2023-11-19T08:00:59;5.60;99.90
2112;DHT22;1062;52.538;13.400;2023-11-19T08:03:24;5.70;99.90
2112;DHT22;1062;52.538;13.400;2023-11-19T08:05:50;5.70;99.90
2112;DHT22;1062;52.538;13.400;2023-11-19T08:08:16;5.80;99.90
2112;DHT22;1062;52.538;13.400;2023-11-19T08:10:42;5.90;99.90
2112;DHT22;1062;52.538;13.400;2023-11-19T08:13:10;6.00;99.90
2112;DHT22;1062;52.538;13.400;2023-11-19T08:15:36;6.10;99.90
2112;DHT22;1062;52.538;13.400;2023-11-19T08:18:01;6.10;99.90
2112;DHT22;1062;52.538;13.400;2023-11-19T08:20:27;6.20;99.90
2112;DHT22;1062;52.538;13.400;2023-11-19T08:22:53;6.30;99.90
2112;DHT22;1062;52.538;13.400;2023-11-19T08:25:19;6.30;99.90
2112;DHT22;1062;52.538;13.400;2023-11-19T08:27:44;6.30;99.90
2112;DHT22;1062;52.538;13.400;2023-11-19T08:30:10;6.50;99.90
2112;DHT22;1062;52.538;13.400;2023-11-19T08:32:37;6.40;99.90
2112;DHT22;1062;52.538;13.400;2023-11-19T08:35:02;6.80;99.90
2112;DHT22;1062;52.538;13.400;2023-11-19T08:37:28;7.00;99.90
2112;DHT22;1062;52.538;13.400;2023-11-19T08:39:54;6.70;99.90
2112;DHT22;1062;52.538;13.400;2023-11-19T08:42:19;6.50;99.90
2112;DHT22;1062;52.538;13.400;2023-11-19T08:44:50;6.40;99.90
2112;DHT22;1062;52.538;13.400;2023-11-19T08:47:16;6.40;99.90
2112;DHT22;1062;52.538;13.400;2023-11-19T08:49:43;6.30;99.90
2112;DHT22;1062;52.538;13.400;2023-11-19T08:52:09;6.40;99.90
2112;DHT22;1062;52.538;13.400;2023-11-19T08:54:36;6.50;99.90
2112;DHT22;1062;52.538;13.400;2023-11-19T08:57:02;6.80;99.90
2112;DHT22;1062;52.538;13.400;2023-11-19T08:59:28;7.00;99.90
2112;DHT22;1062;52.538;13.400;2023-11-19T09:01:54;7.00;99.90
2112;DHT22;1062;52.538;13.400;2023-11-19T09:04:20;6.90;99.90
2112;DHT22;1062;52.538;13.400;2023-11-19T09:06:48;6.90;99.90
2112;DHT22;1062;52.538;13.400;2023-11-19T09:09:13;6.90;99.90
2112;DHT22;1062;52.538;13.400;2023-11-19T09:11:39;7.00;99.90
2112;DHT22;1062;52.538;13.400;2023-11-19T09:14:05;7.00;99.90
2112;DHT22;1062;52.538;13.400;2023-11-19T09:16:30;7.00;99.90
2112;DHT22;1062;52.538;13.400;2023-11-19T09:18:56;7.10;99.90
2112;DHT22;1062;52.538;13.400;2023-11-19T09:21:23;7.20;99.90
2112;DHT22;1062;52.538;13.400;2023-11-19T09:23:48;7.30;99.90
2112;DHT22;1062;52.538;13.400;2023-11-19T09:26:14;7.50;99.90
2112;DHT22;1062;52.538;13.400;2023-11-19T09:28:40;7.40;99.90
2112;DHT22;1062;52.538;13.400;2023-11-19T09:31:18;7.40;99.90
2112;DHT22;1062;52.538;13.400;2023-11-19T09:33:44;7.50;99.90
2112;DHT22;1062;52.538;13.400;2023-11-19T09:36:12;7.60;99.90
2112;DHT22;1062;52.538;13.400;2023-11-19T09:38:39;7.60;99.90
2112;DHT22;1062;52.538;13.400;2023-11-19T09:41:05;7.70;99.90
2112;DHT22;1062;52.538;13.400;2023-11-19T09:43:35;7.80;99.90
2112;DHT22;1062;52.538;13.400;2023-11-19T09:46:05;8.00;99.90
2112;DHT22;1062;52.538;13.400;2023-11-19T09:48:35;8.10;99.90
2112;DHT22;1062;52.538;13.400;2023-11-19T09:51:02;8.40;99.90
2112;DHT22;1062;52.538;13.400;2023-11-19T09:53:29;8.50;99.90
2112;DHT22;1062;52.538;13.400;2023-11-19T09:55:55;8.80;99.90
2112;DHT22;1062;52.538;13.400;2023-11-19T09:58:21;8.90;99.90
2112;DHT22;1062;52.538;13.400;2023-11-19T10:00:48;9.00;99.90
2112;DHT22;1062;52.538;13.400;2023-11-19T10:03:14;9.00;99.90
2112;DHT22;1062;52.538;13.400;2023-11-19T10:05:39;9.00;99.90
2112;DHT22;1062;52.538;13.400;2023-11-19T10:08:06;9.10;99.90
2112;DHT22;1062;52.538;13.400;2023-11-19T10:10:33;9.10;99.90
2112;DHT22;1062;52.538;13.400;2023-11-19T10:12:59;9.20;99.90
2112;DHT22;1062;52.538;13.400;2023-11-19T10:15:26;9.20;99.90
2112;DHT22;1062;52.538;13.400;2023-11-19T10:17:58;9.30;99.90
2112;DHT22;1062;52.538;13.400;2023-11-19T10:20:23;9.40;99.90
2112;DHT22;1062;52.538;13.400;2023-11-19T10:22:53;9.40;99.90
2112;DHT22;1062;52.538;13.400;2023-11-19T10:25:26;9.50;99.90
2112;DHT22;1062;52.538;13.400;2023-11-19T10:27:53;9.50;99.90
2112;DHT22;1062;52.538;13.400;2023-11-19T10:30:25;9.50;99.90
2112;DHT22;1062;52.538;13.400;2023-11-19T10:33:12;9.60;99.90
2112;DHT22;1062;52.538;13.400;2023-11-19T10:38:20;9.70;99.90
2112;DHT22;1062;52.538;13.400;2023-11-19T10:40:47;9.80;99.90
2112;DHT22;1062;52.538;13.400;2023-11-19T10:43:13;9.90;99.90
2112;DHT22;1062;52.538;13.400;2023-11-19T10:45:39;10.00;99.90
2112;DHT22;1062;52.538;13.400;2023-11-19T10:48:06;10.20;99.90
2112;DHT22;1062;52.538;13.400;2023-11-19T10:50:36;10.30;99.90
2112;DHT22;1062;52.538;13.400;2023-11-19T10:53:03;10.30;99.90
2112;DHT22;1062;52.538;13.400;2023-11-19T10:55:33;10.30;99.90
2112;DHT22;1062;52.538;13.400;2023-11-19T10:58:10;10.40;99.90
2112;DHT22;1062;52.538;13.400;2023-11-19T11:00:47;10.50;99.90
2112;DHT22;1062;52.538;13.400;2023-11-19T11:03:18;10.70;99.90
2112;DHT22;1062;52.538;13.400;2023-11-19T11:05:47;10.70;99.90
2112;DHT22;1062;52.538;13.400;2023-11-19T11:08:13;10.80;99.90
2112;DHT22;1062;52.538;13.400;2023-11-19T11:10:54;10.90;99.90
2112;DHT22;1062;52.538;13.400;2023-11-19T11:13:22;11.10;99.90
2112;DHT22;1062;52.538;13.400;2023-11-19T11:15:50;11.20;99.90
2112;DHT22;1062;52.538;13.400;2023-11-19T11:18:17;11.10;99.90
2112;DHT22;1062;52.538;13.400;2023-11-19T11:20:44;11.20;99.90
2112;DHT22;1062;52.538;13.400;2023-11-19T11:39:36;12.10;99.90
2112;DHT22;1062;52.538;13.400;2023-11-19T11:45:14;12.70;99.90
2112;DHT22;1062;52.538;13.400;2023-11-19T11:55:34;12.20;99.90
2112;DHT22;1062;52.538;13.400;2023-11-19T11:58:02;13.30;99.90
2112;DHT22;1062;52.538;13.400;2023-11-19T12:00:30;13.10;99.90
2112;DHT22;1062;52.538;13.400;2023-11-19T12:02:58;13.20;99.90
2112;DHT22;1062;52.538;13.400;2023-11-19T12:05:25;12.90;99.90
2112;DHT22;1062;52.538;13.400;2023-11-19T12:07:59;12.70;99.90
2112;DHT22;1062;52.538;13.400;2023-11-19T12:10:28;12.80;99.90
2112;DHT22;1062;52.538;13.400;2023-11-19T12:12:59;13.40;99.90
2112;DHT22;1062;52.538;13.400;2023-11-19T12:15:26;12.90;99.90
2112;DHT22;1062;52.538;13.400;2023-11-19T12:17:54;12.50;99.90
2112;DHT22;1062;52.538;13.400;2023-11-19T12:20:24;12.80;99.90
2112;DHT22;1062;52.538;13.400;2023-11-19T12:22:51;13.50;99.90
2112;DHT22;1062;52.538;13.400;2023-11-19T12:25:17;12.90;99.90
2112;DHT22;1062;52.538;13.400;2023-11-19T12:27:48;12.50;99.90
2112;DHT22;1062;52.538;13.400;2023-11-19T12:30:32;12.30;99.90
2112;DHT22;1062;52.538;13.400;2023-11-19T12:32:58;12.30;99.90
2112;DHT22;1062;52.538;13.400;2023-11-19T12:35:24;12.20;99.90
2112;DHT22;1062;52.538;13.400;2023-11-19T12:37:51;12.10;99.90
2112;DHT22;1062;52.538;13.400;2023-11-19T12:40:21;12.10;99.90
2112;DHT22;1062;52.538;13.400;2023-11-19T12:42:48;12.00;99.90
2112;DHT22;1062;52.538;13.400;2023-11-19T12:45:17;12.00;99.90
2112;DHT22;1062;52.538;13.400;2023-11-19T12:47:46;11.80;99.90
2112;DHT22;1062;52.538;13.400;2023-11-19T12:50:13;11.70;99.90
2112;DHT22;1062;52.538;13.400;2023-11-19T12:52:39;11.70;99.90
2112;DHT22;1062;52.538;13.400;2023-11-19T12:55:27;11.60;99.90
2112;DHT22;1062;52.538;13.400;2023-11-19T12:57:56;11.70;99.90
2112;DHT22;1062;52.538;13.400;2023-11-19T13:00:24;11.80;99.90
2112;DHT22;1062;52.538;13.400;2023-11-19T13:02:55;11.80;99.90
2112;DHT22;1062;52.538;13.400;2023-11-19T13:07:58;11.70;99.90
2112;DHT22;1062;52.538;13.400;2023-11-19T13:10:25;11.60;99.90
2112;DHT22;1062;52.538;13.400;2023-11-19T13:13:07;11.50;99.90
2112;DHT22;1062;52.538;13.400;2023-11-19T13:15:34;11.60;99.90
2112;DHT22;1062;52.538;13.400;2023-11-19T13:18:00;11.60;99.90
2112;DHT22;1062;52.538;13.400;2023-11-19T13:20:27;11.60;99.90
2112;DHT22;1062;52.538;13.400;2023-11-19T13:23:00;11.70;99.90
2112;DHT22;1062;52.538;13.400;2023-11-19T13:25:27;11.60;99.90
2112;DHT22;1062;52.538;13.400;2023-11-19T13:27:56;11.70;99.90
2112;DHT22;1062;52.538;13.400;2023-11-19T13:30:25;11.60;99.90
2112;DHT22;1062;52.538;13.400;2023-11-19T13:32:51;11.50;99.90
2112;DHT22;1062;52.538;13.400;2023-11-19T13:35:21;11.40;99.90
2112;DHT22;1062;52.538;13.400;2023-11-19T13:37:52;11.40;99.90
2112;DHT22;1062;52.538;13.400;2023-11-19T13:40:22;11.40;99.90
2112;DHT22;1062;52.538;13.400;2023-11-19T13:42:50;11.50;99.90
2112;DHT22;1062;52.538;13.400;2023-11-19T13:45:15;11.50;99.90
2112;DHT22;1062;52.538;13.400;2023-11-19T13:47:44;11.50;99.90
2112;DHT22;1062;52.538;13.400;2023-11-19T13:50:12;11.50;99.90
2112;DHT22;1062;52.538;13.400;2023-11-19T13:52:40;11.50;99.90
2112;DHT22;1062;52.538;13.400;2023-11-19T13:55:09;11.50;99.90
2112;DHT22;1062;52.538;13.400;2023-11-19T13:57:36;11.50;99.90
2112;DHT22;1062;52.538;13.400;2023-11-19T14:00:03;11.50;99.90
2112;DHT22;1062;52.538;13.400;2023-11-19T14:02:33;11.50;99.90
2112;DHT22;1062;52.538;13.400;2023-11-19T14:04:59;11.50;99.90
2112;DHT22;1062;52.538;13.400;2023-11-19T14:07:25;11.50;99.90
2112;DHT22;1062;52.538;13.400;2023-11-19T14:09:51;11.50;99.90
2112;DHT22;1062;52.538;13.400;2023-11-19T14:12:17;11.50;99.90
2112;DHT22;1062;52.538;13.400;2023-11-19T14:14:45;11.50;99.90
2112;DHT22;1062;52.538;13.400;2023-11-19T14:17:11;11.50;99.90
2112;DHT22;1062;52.538;13.400;2023-11-19T14:19:37;11.50;99.90
2112;DHT22;1062;52.538;13.400;2023-11-19T14:22:06;11.50;99.90
2112;DHT22;1062;52.538;13.400;2023-11-19T14:24:35;11.50;99.90
2112;DHT22;1062;52.538;13.400;2023-11-19T14:27:01;11.50;99.90
2112;DHT22;1062;52.538;13.400;2023-11-19T14:29:29;11.50;99.90
2112;DHT22;1062;52.538;13.400;2023-11-19T14:32:04;11.50;99.90
2112;DHT22;1062;52.538;13.400;2023-11-19T14:34:32;11.50;99.90
2112;DHT22;1062;52.538;13.400;2023-11-19T14:36:58;11.50;99.90
2112;DHT22;1062;52.538;13.400;2023-11-19T14:39:27;11.40;99.90
2112;DHT22;1062;52.538;13.400;2023-11-19T14:41:58;11.40;99.90
2112;DHT22;1062;52.538;13.400;2023-11-19T14:44:27;11.40;99.90
2112;DHT22;1062;52.538;13.400;2023-11-19T14:46:57;11.30;99.90
2112;DHT22;1062;52.538;13.400;2023-11-19T14:49:23;11.30;99.90
2112;DHT22;1062;52.538;13.400;2023-11-19T14:51:53;11.30;99.90
2112;DHT22;1062;52.538;13.400;2023-11-19T14:54:21;11.30;99.90
2112;DHT22;1062;52.538;13.400;2023-11-19T14:56:56;11.40;99.90
2112;DHT22;1062;52.538;13.400;2023-11-19T14:59:22;11.30;99.90
2112;DHT22;1062;52.538;13.400;2023-11-19T15:01:50;11.40;99.90
2112;DHT22;1062;52.538;13.400;2023-11-19T15:04:15;11.40;99.90
2112;DHT22;1062;52.538;13.400;2023-11-19T15:06:45;11.40;99.90
2112;DHT22;1062;52.538;13.400;2023-11-19T15:09:13;11.30;99.90
2112;DHT22;1062;52.538;13.400;2023-11-19T15:11:43;11.30;99.90
2112;DHT22;1062;52.538;13.400;2023-11-19T15:14:13;11.30;99.90
2112;DHT22;1062;52.538;13.400;2023-11-19T15:16:45;11.30;99.90
2112;DHT22;1062;52.538;13.400;2023-11-19T15:19:17;11.30;99.90
2112;DHT22;1062;52.538;13.400;2023-11-19T15:21:42;11.30;99.90
2112;DHT22;1062;52.538;13.400;2023-11-19T15:24:09;11.30;99.90
2112;DHT22;1062;52.538;13.400;2023-11-19T15:26:35;11.20;99.90
2112;DHT22;1062;52.538;13.400;2023-11-19T15:29:01;11.20;99.90
2112;DHT22;1062;52.538;13.400;2023-11-19T15:31:26;11.20;99.90
2112;DHT22;1062;52.538;13.400;2023-11-19T15:33:52;11.20;99.90
2112;DHT22;1062;52.538;13.400;2023-11-19T15:36:18;11.20;99.90
2112;DHT22;1062;52.538;13.400;2023-11-19T15:38:44;11.20;99.90
2112;DHT22;1062;52.538;13.400;2023-11-19T15:41:10;11.20;99.90
2112;DHT22;1062;52.538;13.400;2023-11-19T15:43:36;11.20;99.90
2112;DHT22;1062;52.538;13.400;2023-11-19T15:46:06;11.20;99.90
2112;DHT22;1062;52.538;13.400;2023-11-19T15:48:32;11.20;99.90
2112;DHT22;1062;52.538;13.400;2023-11-19T15:50:57;11.20;99.90
2112;DHT22;1062;52.538;13.400;2023-11-19T15:53:23;11.20;99.90
2112;DHT22;1062;52.538;13.400;2023-11-19T15:55:48;11.10;99.90
2112;DHT22;1062;52.538;13.400;2023-11-19T15:58:14;11.10;99.90
2112;DHT22;1062;52.538;13.400;2023-11-19T16:00:39;11.10;99.90
2112;DHT22;1062;52.538;13.400;2023-11-19T16:03:11;11.10;99.90
2112;DHT22;1062;52.538;13.400;2023-11-19T16:05:37;11.10;99.90
2112;DHT22;1062;52.538;13.400;2023-11-19T16:08:03;11.10;99.90
2112;DHT22;1062;52.538;13.400;2023-11-19T16:10:28;11.10;99.90
2112;DHT22;1062;52.538;13.400;2023-11-19T16:12:54;11.00;99.90
2112;DHT22;1062;52.538;13.400;2023-11-19T16:15:20;11.00;99.90
2112;DHT22;1062;52.538;13.400;2023-11-19T16:17:46;11.00;99.90
2112;DHT22;1062;52.538;13.400;2023-11-19T16:20:11;11.00;99.90
2112;DHT22;1062;52.538;13.400;2023-11-19T16:22:39;11.00;99.90
2112;DHT22;1062;52.538;13.400;2023-11-19T16:25:05;11.00;99.90
2112;DHT22;1062;52.538;13.400;2023-11-19T16:27:31;11.00;99.90
2112;DHT22;1062;52.538;13.400;2023-11-19T16:29:57;11.00;99.90